sensor_id;sensor_type;location;lat;lon;timestamp;P1;durP1;ratioP1;P2;durP2;ratioP2
68951;SDS011;56000;51.146;17.112;2023-05-19T00:00:00;8.80;;;4.10;;
68951;SDS011;56000;51.146;17.112;2023-05-19T00:03:00;5.60;;;3.30;;
68951;SDS011;56000;51.146;17.112;2023-05-19T00:05:34;5.80;;;3.00;;
68951;SDS011;56000;51.146;17.112;2023-05-19T00:08:10;6.40;;;3.40;;
68951;SDS011;56000;51.146;17.112;2023-05-19T00:10:45;8.50;;;3.20;;
68951;SDS011;56000;51.146;17.112;2023-05-19T00:13:19;6.50;;;3.60;;
68951;SDS011;56000;51.146;17.112;2023-05-19T00:15:54;5.10;;;3.20;;
68951;SDS011;56000;51.146;17.112;2023-05-19T00:18:27;8.90;;;3.50;;
68951;SDS011;56000;51.146;17.112;2023-05-19T00:23:10;6.80;;;3.60;;
68951;SDS011;56000;51.146;17.112;2023-05-19T00:25:43;15.30;;;5.50;;
68951;SDS011;56000;51.146;17.112;2023-05-19T00:28:17;9.40;;;3.40;;
68951;SDS011;56000;51.146;17.112;2023-05-19T00:30:51;9.00;;;3.50;;
68951;SDS011;56000;51.146;17.112;2023-05-19T00:33:24;5.70;;;2.90;;
68951;SDS011;56000;51.146;17.112;2023-05-19T00:35:58;9.80;;;3.50;;
68951;SDS011;56000;51.146;17.112;2023-05-19T00:38:34;6.80;;;4.00;;
68951;SDS011;56000;51.146;17.112;2023-05-19T00:41:09;6.00;;;3.40;;
68951;SDS011;56000;51.146;17.112;2023-05-19T00:43:43;7.20;;;3.50;;
68951;SDS011;56000;51.146;17.112;2023-05-19T00:46:17;7.00;;;3.60;;
68951;SDS011;56000;51.146;17.112;2023-05-19T00:48:52;5.40;;;2.80;;
68951;SDS011;56000;51.146;17.112;2023-05-19T00:51:28;5.70;;;3.10;;
68951;SDS011;56000;51.146;17.112;2023-05-19T00:54:01;7.70;;;3.10;;
68951;SDS011;56000;51.146;17.112;2023-05-19T00:56:35;6.80;;;3.10;;
68951;SDS011;56000;51.146;17.112;2023-05-19T00:59:08;7.40;;;3.60;;
68951;SDS011;56000;51.146;17.112;2023-05-19T01:01:42;13.60;;;3.50;;
68951;SDS011;56000;51.146;17.112;2023-05-19T01:04:19;7.20;;;3.50;;
68951;SDS011;56000;51.146;17.112;2023-05-19T01:06:54;5.60;;;3.30;;
68951;SDS011;56000;51.146;17.112;2023-05-19T01:09:28;5.10;;;2.90;;
68951;SDS011;56000;51.146;17.112;2023-05-19T01:12:02;6.90;;;3.40;;
68951;SDS011;56000;51.146;17.112;2023-05-19T01:14:37;8.30;;;3.70;;
68951;SDS011;56000;51.146;17.112;2023-05-19T01:17:13;6.80;;;3.50;;
68951;SDS011;56000;51.146;17.112;2023-05-19T01:19:59;6.80;;;3.40;;
68951;SDS011;56000;51.146;17.112;2023-05-19T01:23:10;7.80;;;3.40;;
68951;SDS011;56000;51.146;17.112;2023-05-19T01:26:08;5.90;;;3.70;;
68951;SDS011;56000;51.146;17.112;2023-05-19T01:29:02;5.90;;;3.10;;
68951;SDS011;56000;51.146;17.112;2023-05-19T01:31:46;8.40;;;3.70;;
68951;SDS011;56000;51.146;17.112;2023-05-19T01:34:20;9.60;;;4.30;;
68951;SDS011;56000;51.146;17.112;2023-05-19T01:36:56;11.90;;;4.20;;
68951;SDS011;56000;51.146;17.112;2023-05-19T01:39:30;6.90;;;3.40;;
68951;SDS011;56000;51.146;17.112;2023-05-19T01:42:06;6.80;;;3.30;;
68951;SDS011;56000;51.146;17.112;2023-05-19T01:44:39;8.10;;;3.60;;
68951;SDS011;56000;51.146;17.112;2023-05-19T01:47:13;5.90;;;3.10;;
68951;SDS011;56000;51.146;17.112;2023-05-19T01:49:46;6.60;;;3.20;;
68951;SDS011;56000;51.146;17.112;2023-05-19T01:52:19;6.10;;;3.40;;
68951;SDS011;56000;51.146;17.112;2023-05-19T01:54:52;6.70;;;3.20;;
68951;SDS011;56000;51.146;17.112;2023-05-19T01:57:30;6.30;;;3.40;;
68951;SDS011;56000;51.146;17.112;2023-05-19T02:00:15;7.90;;;3.70;;
68951;SDS011;56000;51.146;17.112;2023-05-19T02:03:01;7.40;;;3.60;;
68951;SDS011;56000;51.146;17.112;2023-05-19T02:05:51;11.00;;;3.40;;
68951;SDS011;56000;51.146;17.112;2023-05-19T02:08:49;6.50;;;3.40;;
68951;SDS011;56000;51.146;17.112;2023-05-19T02:11:30;9.60;;;3.60;;
68951;SDS011;56000;51.146;17.112;2023-05-19T02:14:11;7.00;;;3.20;;
68951;SDS011;56000;51.146;17.112;2023-05-19T02:16:48;7.60;;;3.40;;
68951;SDS011;56000;51.146;17.112;2023-05-19T02:19:24;7.40;;;3.70;;
68951;SDS011;56000;51.146;17.112;2023-05-19T02:21:59;8.20;;;3.90;;
68951;SDS011;56000;51.146;17.112;2023-05-19T02:24:32;6.10;;;3.50;;
68951;SDS011;56000;51.146;17.112;2023-05-19T02:27:06;6.10;;;3.40;;
68951;SDS011;56000;51.146;17.112;2023-05-19T02:29:39;7.60;;;3.50;;
68951;SDS011;56000;51.146;17.112;2023-05-19T02:32:13;9.00;;;3.90;;
68951;SDS011;56000;51.146;17.112;2023-05-19T02:34:48;7.30;;;3.60;;
68951;SDS011;56000;51.146;17.112;2023-05-19T02:37:23;9.10;;;4.10;;
68951;SDS011;56000;51.146;17.112;2023-05-19T02:39:58;5.10;;;3.20;;
68951;SDS011;56000;51.146;17.112;2023-05-19T02:42:31;8.20;;;4.00;;
68951;SDS011;56000;51.146;17.112;2023-05-19T02:45:05;9.00;;;4.10;;
68951;SDS011;56000;51.146;17.112;2023-05-19T02:47:42;10.80;;;4.30;;
68951;SDS011;56000;51.146;17.112;2023-05-19T02:50:15;9.20;;;4.20;;
68951;SDS011;56000;51.146;17.112;2023-05-19T02:52:49;9.50;;;4.00;;
68951;SDS011;56000;51.146;17.112;2023-05-19T02:55:22;8.00;;;3.70;;
68951;SDS011;56000;51.146;17.112;2023-05-19T02:57:55;8.20;;;4.50;;
68951;SDS011;56000;51.146;17.112;2023-05-19T03:00:28;8.80;;;4.30;;
68951;SDS011;56000;51.146;17.112;2023-05-19T03:03:02;7.80;;;4.10;;
68951;SDS011;56000;51.146;17.112;2023-05-19T03:05:35;8.90;;;4.10;;
68951;SDS011;56000;51.146;17.112;2023-05-19T03:08:08;9.40;;;3.80;;
68951;SDS011;56000;51.146;17.112;2023-05-19T03:10:41;10.50;;;4.90;;
68951;SDS011;56000;51.146;17.112;2023-05-19T03:13:15;10.40;;;4.20;;
68951;SDS011;56000;51.146;17.112;2023-05-19T03:15:48;11.70;;;4.10;;
68951;SDS011;56000;51.146;17.112;2023-05-19T03:18:21;8.10;;;4.40;;
68951;SDS011;56000;51.146;17.112;2023-05-19T03:20:54;8.40;;;4.10;;
68951;SDS011;56000;51.146;17.112;2023-05-19T03:23:27;8.70;;;4.30;;
68951;SDS011;56000;51.146;17.112;2023-05-19T03:26:00;9.30;;;4.40;;
68951;SDS011;56000;51.146;17.112;2023-05-19T03:28:33;8.90;;;3.60;;
68951;SDS011;56000;51.146;17.112;2023-05-19T03:31:07;10.00;;;4.20;;
68951;SDS011;56000;51.146;17.112;2023-05-19T03:33:40;14.60;;;5.00;;
68951;SDS011;56000;51.146;17.112;2023-05-19T03:36:13;7.90;;;4.20;;
68951;SDS011;56000;51.146;17.112;2023-05-19T03:38:46;7.40;;;4.30;;
68951;SDS011;56000;51.146;17.112;2023-05-19T03:41:19;6.40;;;4.10;;
68951;SDS011;56000;51.146;17.112;2023-05-19T03:43:53;6.90;;;3.80;;
68951;SDS011;56000;51.146;17.112;2023-05-19T03:46:26;9.30;;;4.60;;
68951;SDS011;56000;51.146;17.112;2023-05-19T03:49:18;7.50;;;3.90;;
68951;SDS011;56000;51.146;17.112;2023-05-19T03:52:06;8.90;;;4.30;;
68951;SDS011;56000;51.146;17.112;2023-05-19T03:54:55;6.10;;;3.80;;
68951;SDS011;56000;51.146;17.112;2023-05-19T03:57:28;7.30;;;4.60;;
68951;SDS011;56000;51.146;17.112;2023-05-19T04:00:02;9.20;;;4.40;;
68951;SDS011;56000;51.146;17.112;2023-05-19T04:02:40;7.00;;;4.30;;
68951;SDS011;56000;51.146;17.112;2023-05-19T04:05:15;6.90;;;4.40;;
68951;SDS011;56000;51.146;17.112;2023-05-19T04:07:48;7.20;;;4.30;;
68951;SDS011;56000;51.146;17.112;2023-05-19T04:10:21;11.80;;;5.00;;
68951;SDS011;56000;51.146;17.112;2023-05-19T04:12:56;7.50;;;4.10;;
68951;SDS011;56000;51.146;17.112;2023-05-19T04:15:29;6.90;;;4.10;;
68951;SDS011;56000;51.146;17.112;2023-05-19T04:18:02;11.00;;;4.80;;
68951;SDS011;56000;51.146;17.112;2023-05-19T04:20:35;7.70;;;4.00;;
68951;SDS011;56000;51.146;17.112;2023-05-19T04:23:08;10.40;;;4.20;;
68951;SDS011;56000;51.146;17.112;2023-05-19T04:25:41;9.80;;;4.20;;
68951;SDS011;56000;51.146;17.112;2023-05-19T04:28:17;11.50;;;4.50;;
68951;SDS011;56000;51.146;17.112;2023-05-19T04:30:50;6.70;;;3.90;;
68951;SDS011;56000;51.146;17.112;2023-05-19T04:33:23;11.30;;;4.30;;
68951;SDS011;56000;51.146;17.112;2023-05-19T04:35:58;6.20;;;3.60;;
68951;SDS011;56000;51.146;17.112;2023-05-19T04:38:34;9.00;;;4.00;;
68951;SDS011;56000;51.146;17.112;2023-05-19T04:41:09;7.10;;;3.70;;
68951;SDS011;56000;51.146;17.112;2023-05-19T04:43:42;5.10;;;3.40;;
68951;SDS011;56000;51.146;17.112;2023-05-19T04:46:17;7.20;;;3.30;;
68951;SDS011;56000;51.146;17.112;2023-05-19T04:48:55;6.20;;;3.70;;
68951;SDS011;56000;51.146;17.112;2023-05-19T04:51:30;8.90;;;3.80;;
68951;SDS011;56000;51.146;17.112;2023-05-19T04:54:04;9.20;;;3.50;;
68951;SDS011;56000;51.146;17.112;2023-05-19T04:56:39;4.40;;;3.00;;
68951;SDS011;56000;51.146;17.112;2023-05-19T04:59:13;7.30;;;3.70;;
68951;SDS011;56000;51.146;17.112;2023-05-19T05:01:46;7.70;;;3.50;;
68951;SDS011;56000;51.146;17.112;2023-05-19T05:04:19;5.80;;;3.30;;
68951;SDS011;56000;51.146;17.112;2023-05-19T05:06:53;5.90;;;3.10;;
68951;SDS011;56000;51.146;17.112;2023-05-19T05:09:26;11.70;;;3.90;;
68951;SDS011;56000;51.146;17.112;2023-05-19T05:12:02;6.90;;;4.00;;
68951;SDS011;56000;51.146;17.112;2023-05-19T05:14:38;6.70;;;3.30;;
68951;SDS011;56000;51.146;17.112;2023-05-19T05:17:13;6.90;;;3.50;;
68951;SDS011;56000;51.146;17.112;2023-05-19T05:19:47;9.30;;;3.60;;
68951;SDS011;56000;51.146;17.112;2023-05-19T05:22:23;15.60;;;3.70;;
68951;SDS011;56000;51.146;17.112;2023-05-19T05:24:58;8.00;;;3.70;;
68951;SDS011;56000;51.146;17.112;2023-05-19T05:27:32;7.50;;;3.30;;
68951;SDS011;56000;51.146;17.112;2023-05-19T05:30:07;6.10;;;3.20;;
68951;SDS011;56000;51.146;17.112;2023-05-19T05:32:41;6.50;;;3.70;;
68951;SDS011;56000;51.146;17.112;2023-05-19T05:35:27;7.10;;;3.30;;
68951;SDS011;56000;51.146;17.112;2023-05-19T05:38:01;7.30;;;3.80;;
68951;SDS011;56000;51.146;17.112;2023-05-19T05:40:34;5.60;;;3.90;;
68951;SDS011;56000;51.146;17.112;2023-05-19T05:43:07;4.80;;;3.50;;
68951;SDS011;56000;51.146;17.112;2023-05-19T05:45:46;8.30;;;4.00;;
68951;SDS011;56000;51.146;17.112;2023-05-19T05:48:20;8.10;;;4.30;;
68951;SDS011;56000;51.146;17.112;2023-05-19T05:50:54;8.10;;;4.00;;
68951;SDS011;56000;51.146;17.112;2023-05-19T05:53:31;6.10;;;3.60;;
68951;SDS011;56000;51.146;17.112;2023-05-19T05:56:13;6.90;;;2.90;;
68951;SDS011;56000;51.146;17.112;2023-05-19T05:58:51;8.10;;;3.30;;
68951;SDS011;56000;51.146;17.112;2023-05-19T06:01:24;7.30;;;3.30;;
68951;SDS011;56000;51.146;17.112;2023-05-19T06:04:00;9.10;;;3.20;;
68951;SDS011;56000;51.146;17.112;2023-05-19T06:06:34;6.70;;;3.60;;
68951;SDS011;56000;51.146;17.112;2023-05-19T06:09:07;8.30;;;3.60;;
68951;SDS011;56000;51.146;17.112;2023-05-19T06:11:41;6.10;;;3.30;;
68951;SDS011;56000;51.146;17.112;2023-05-19T06:14:14;5.60;;;3.00;;
68951;SDS011;56000;51.146;17.112;2023-05-19T06:17:10;4.30;;;3.10;;
68951;SDS011;56000;51.146;17.112;2023-05-19T06:19:43;7.80;;;3.90;;
68951;SDS011;56000;51.146;17.112;2023-05-19T06:22:16;8.00;;;2.90;;
68951;SDS011;56000;51.146;17.112;2023-05-19T06:24:50;6.60;;;3.10;;
68951;SDS011;56000;51.146;17.112;2023-05-19T06:27:23;7.10;;;3.30;;
68951;SDS011;56000;51.146;17.112;2023-05-19T06:29:57;8.20;;;4.10;;
68951;SDS011;56000;51.146;17.112;2023-05-19T06:32:31;8.00;;;4.00;;
68951;SDS011;56000;51.146;17.112;2023-05-19T06:35:05;7.00;;;2.90;;
68951;SDS011;56000;51.146;17.112;2023-05-19T06:37:39;9.40;;;3.60;;
68951;SDS011;56000;51.146;17.112;2023-05-19T06:40:13;7.50;;;4.10;;
68951;SDS011;56000;51.146;17.112;2023-05-19T06:42:47;7.20;;;3.90;;
68951;SDS011;56000;51.146;17.112;2023-05-19T06:45:55;7.40;;;3.40;;
68951;SDS011;56000;51.146;17.112;2023-05-19T06:48:28;6.40;;;3.20;;
68951;SDS011;56000;51.146;17.112;2023-05-19T06:51:02;6.40;;;3.30;;
68951;SDS011;56000;51.146;17.112;2023-05-19T06:53:35;7.40;;;3.20;;
68951;SDS011;56000;51.146;17.112;2023-05-19T06:56:10;8.00;;;4.50;;
68951;SDS011;56000;51.146;17.112;2023-05-19T06:58:43;7.70;;;3.10;;
68951;SDS011;56000;51.146;17.112;2023-05-19T07:01:16;7.20;;;3.30;;
68951;SDS011;56000;51.146;17.112;2023-05-19T07:03:53;7.70;;;2.90;;
68951;SDS011;56000;51.146;17.112;2023-05-19T07:06:26;4.50;;;2.70;;
68951;SDS011;56000;51.146;17.112;2023-05-19T07:09:00;6.10;;;3.10;;
68951;SDS011;56000;51.146;17.112;2023-05-19T07:11:35;4.30;;;2.60;;
68951;SDS011;56000;51.146;17.112;2023-05-19T07:14:08;5.70;;;3.00;;
68951;SDS011;56000;51.146;17.112;2023-05-19T07:16:42;8.10;;;3.00;;
68951;SDS011;56000;51.146;17.112;2023-05-19T07:19:15;4.30;;;2.60;;
68951;SDS011;56000;51.146;17.112;2023-05-19T07:21:49;9.00;;;3.10;;
68951;SDS011;56000;51.146;17.112;2023-05-19T07:24:22;8.40;;;2.90;;
68951;SDS011;56000;51.146;17.112;2023-05-19T07:26:56;9.60;;;3.60;;
68951;SDS011;56000;51.146;17.112;2023-05-19T07:29:29;5.60;;;2.80;;
68951;SDS011;56000;51.146;17.112;2023-05-19T07:32:02;5.70;;;2.70;;
68951;SDS011;56000;51.146;17.112;2023-05-19T07:34:36;8.20;;;3.30;;
68951;SDS011;56000;51.146;17.112;2023-05-19T07:37:10;6.50;;;2.60;;
68951;SDS011;56000;51.146;17.112;2023-05-19T07:39:44;6.70;;;2.60;;
68951;SDS011;56000;51.146;17.112;2023-05-19T07:42:17;5.40;;;2.50;;
68951;SDS011;56000;51.146;17.112;2023-05-19T07:44:50;7.20;;;2.70;;
68951;SDS011;56000;51.146;17.112;2023-05-19T07:47:23;4.60;;;2.50;;
68951;SDS011;56000;51.146;17.112;2023-05-19T07:49:56;5.00;;;2.70;;
68951;SDS011;56000;51.146;17.112;2023-05-19T07:52:29;4.70;;;2.40;;
68951;SDS011;56000;51.146;17.112;2023-05-19T07:55:02;5.10;;;2.50;;
68951;SDS011;56000;51.146;17.112;2023-05-19T07:57:36;5.60;;;2.50;;
68951;SDS011;56000;51.146;17.112;2023-05-19T08:00:10;4.60;;;2.30;;
68951;SDS011;56000;51.146;17.112;2023-05-19T08:02:45;4.20;;;2.30;;
68951;SDS011;56000;51.146;17.112;2023-05-19T08:05:19;4.40;;;2.90;;
68951;SDS011;56000;51.146;17.112;2023-05-19T08:07:52;5.50;;;2.70;;
68951;SDS011;56000;51.146;17.112;2023-05-19T08:10:26;5.80;;;2.80;;
68951;SDS011;56000;51.146;17.112;2023-05-19T08:13:00;5.70;;;3.60;;
68951;SDS011;56000;51.146;17.112;2023-05-19T08:15:34;4.10;;;2.80;;
68951;SDS011;56000;51.146;17.112;2023-05-19T08:18:07;5.80;;;2.80;;
68951;SDS011;56000;51.146;17.112;2023-05-19T08:20:41;3.30;;;2.40;;
68951;SDS011;56000;51.146;17.112;2023-05-19T08:23:15;6.90;;;2.90;;
68951;SDS011;56000;51.146;17.112;2023-05-19T08:25:49;9.20;;;3.40;;
68951;SDS011;56000;51.146;17.112;2023-05-19T08:28:22;5.30;;;3.20;;
68951;SDS011;56000;51.146;17.112;2023-05-19T08:30:56;4.40;;;3.00;;
68951;SDS011;56000;51.146;17.112;2023-05-19T08:33:29;8.70;;;4.30;;
68951;SDS011;56000;51.146;17.112;2023-05-19T08:36:02;5.80;;;3.10;;
68951;SDS011;56000;51.146;17.112;2023-05-19T08:38:36;3.80;;;3.00;;
68951;SDS011;56000;51.146;17.112;2023-05-19T08:41:09;7.80;;;2.90;;
68951;SDS011;56000;51.146;17.112;2023-05-19T08:43:42;4.60;;;2.80;;
68951;SDS011;56000;51.146;17.112;2023-05-19T08:46:16;5.80;;;2.70;;
68951;SDS011;56000;51.146;17.112;2023-05-19T08:48:53;7.60;;;2.80;;
68951;SDS011;56000;51.146;17.112;2023-05-19T08:51:32;6.40;;;3.00;;
68951;SDS011;56000;51.146;17.112;2023-05-19T08:54:13;4.70;;;2.70;;
68951;SDS011;56000;51.146;17.112;2023-05-19T08:56:47;6.60;;;3.30;;
68951;SDS011;56000;51.146;17.112;2023-05-19T08:59:20;6.90;;;2.50;;
68951;SDS011;56000;51.146;17.112;2023-05-19T09:01:54;4.80;;;2.70;;
68951;SDS011;56000;51.146;17.112;2023-05-19T09:04:28;4.70;;;2.40;;
68951;SDS011;56000;51.146;17.112;2023-05-19T09:07:02;3.90;;;2.40;;
68951;SDS011;56000;51.146;17.112;2023-05-19T09:09:35;4.00;;;2.30;;
68951;SDS011;56000;51.146;17.112;2023-05-19T09:12:12;4.30;;;2.30;;
68951;SDS011;56000;51.146;17.112;2023-05-19T09:14:46;5.40;;;2.70;;
68951;SDS011;56000;51.146;17.112;2023-05-19T09:17:19;5.70;;;2.40;;
68951;SDS011;56000;51.146;17.112;2023-05-19T09:19:52;4.50;;;2.00;;
68951;SDS011;56000;51.146;17.112;2023-05-19T09:22:25;7.40;;;2.60;;
68951;SDS011;56000;51.146;17.112;2023-05-19T09:24:59;5.90;;;2.10;;
68951;SDS011;56000;51.146;17.112;2023-05-19T09:27:32;4.60;;;2.00;;
68951;SDS011;56000;51.146;17.112;2023-05-19T09:30:09;4.40;;;2.10;;
68951;SDS011;56000;51.146;17.112;2023-05-19T09:32:45;4.30;;;2.10;;
68951;SDS011;56000;51.146;17.112;2023-05-19T09:35:18;5.30;;;2.20;;
68951;SDS011;56000;51.146;17.112;2023-05-19T09:37:54;4.60;;;2.50;;
68951;SDS011;56000;51.146;17.112;2023-05-19T09:40:27;5.90;;;3.10;;
68951;SDS011;56000;51.146;17.112;2023-05-19T09:43:05;6.50;;;2.40;;
68951;SDS011;56000;51.146;17.112;2023-05-19T09:45:39;8.30;;;2.80;;
68951;SDS011;56000;51.146;17.112;2023-05-19T09:48:14;7.10;;;2.80;;
68951;SDS011;56000;51.146;17.112;2023-05-19T09:50:47;6.30;;;2.90;;
68951;SDS011;56000;51.146;17.112;2023-05-19T09:53:22;6.10;;;3.10;;
68951;SDS011;56000;51.146;17.112;2023-05-19T09:55:57;7.40;;;3.40;;
68951;SDS011;56000;51.146;17.112;2023-05-19T09:58:33;7.80;;;3.30;;
68951;SDS011;56000;51.146;17.112;2023-05-19T10:01:06;9.00;;;4.10;;
68951;SDS011;56000;51.146;17.112;2023-05-19T10:03:40;6.50;;;3.30;;
68951;SDS011;56000;51.146;17.112;2023-05-19T10:06:14;8.20;;;4.10;;
68951;SDS011;56000;51.146;17.112;2023-05-19T10:08:48;6.70;;;4.20;;
68951;SDS011;56000;51.146;17.112;2023-05-19T10:11:22;6.80;;;3.60;;
68951;SDS011;56000;51.146;17.112;2023-05-19T10:13:56;6.70;;;3.70;;
68951;SDS011;56000;51.146;17.112;2023-05-19T10:16:30;7.40;;;3.80;;
68951;SDS011;56000;51.146;17.112;2023-05-19T10:19:03;6.50;;;3.60;;
68951;SDS011;56000;51.146;17.112;2023-05-19T10:21:38;5.00;;;3.20;;
68951;SDS011;56000;51.146;17.112;2023-05-19T10:24:11;8.80;;;3.40;;
68951;SDS011;56000;51.146;17.112;2023-05-19T10:26:45;9.10;;;3.40;;
68951;SDS011;56000;51.146;17.112;2023-05-19T10:29:22;5.50;;;3.20;;
68951;SDS011;56000;51.146;17.112;2023-05-19T10:31:59;7.70;;;3.20;;
68951;SDS011;56000;51.146;17.112;2023-05-19T10:35:06;5.80;;;3.30;;
68951;SDS011;56000;51.146;17.112;2023-05-19T10:38:02;8.70;;;4.60;;
68951;SDS011;56000;51.146;17.112;2023-05-19T10:40:50;8.90;;;3.50;;
68951;SDS011;56000;51.146;17.112;2023-05-19T10:43:33;9.40;;;3.40;;
68951;SDS011;56000;51.146;17.112;2023-05-19T10:46:15;7.90;;;3.40;;
68951;SDS011;56000;51.146;17.112;2023-05-19T10:48:48;9.70;;;3.30;;
68951;SDS011;56000;51.146;17.112;2023-05-19T10:51:21;8.10;;;3.10;;
68951;SDS011;56000;51.146;17.112;2023-05-19T10:54:01;8.40;;;3.40;;
68951;SDS011;56000;51.146;17.112;2023-05-19T10:56:41;7.60;;;3.70;;
68951;SDS011;56000;51.146;17.112;2023-05-19T10:59:34;8.60;;;3.50;;
68951;SDS011;56000;51.146;17.112;2023-05-19T11:02:08;8.70;;;3.60;;
68951;SDS011;56000;51.146;17.112;2023-05-19T11:05:07;8.20;;;3.30;;
68951;SDS011;56000;51.146;17.112;2023-05-19T11:07:53;8.10;;;3.50;;
68951;SDS011;56000;51.146;17.112;2023-05-19T11:10:31;6.30;;;3.40;;
68951;SDS011;56000;51.146;17.112;2023-05-19T11:13:04;5.70;;;3.40;;
68951;SDS011;56000;51.146;17.112;2023-05-19T11:15:38;8.60;;;4.30;;
68951;SDS011;56000;51.146;17.112;2023-05-19T11:18:15;9.60;;;4.20;;
68951;SDS011;56000;51.146;17.112;2023-05-19T11:20:55;9.30;;;3.50;;
68951;SDS011;56000;51.146;17.112;2023-05-19T11:23:37;10.90;;;3.60;;
68951;SDS011;56000;51.146;17.112;2023-05-19T11:26:11;6.00;;;3.20;;
68951;SDS011;56000;51.146;17.112;2023-05-19T11:28:44;6.20;;;4.00;;
68951;SDS011;56000;51.146;17.112;2023-05-19T11:31:19;7.00;;;3.70;;
68951;SDS011;56000;51.146;17.112;2023-05-19T11:33:53;9.20;;;4.70;;
68951;SDS011;56000;51.146;17.112;2023-05-19T11:36:27;8.90;;;4.00;;
68951;SDS011;56000;51.146;17.112;2023-05-19T11:39:01;7.00;;;4.30;;
68951;SDS011;56000;51.146;17.112;2023-05-19T11:41:40;8.40;;;4.30;;
68951;SDS011;56000;51.146;17.112;2023-05-19T11:44:13;5.90;;;3.60;;
68951;SDS011;56000;51.146;17.112;2023-05-19T11:46:46;9.10;;;4.30;;
68951;SDS011;56000;51.146;17.112;2023-05-19T11:49:19;6.90;;;4.00;;
68951;SDS011;56000;51.146;17.112;2023-05-19T11:51:52;7.70;;;4.20;;
68951;SDS011;56000;51.146;17.112;2023-05-19T11:54:31;5.10;;;3.80;;
68951;SDS011;56000;51.146;17.112;2023-05-19T11:57:06;6.50;;;4.30;;
68951;SDS011;56000;51.146;17.112;2023-05-19T11:59:40;7.50;;;4.40;;
68951;SDS011;56000;51.146;17.112;2023-05-19T12:02:19;5.90;;;4.00;;
68951;SDS011;56000;51.146;17.112;2023-05-19T12:04:54;7.20;;;3.90;;
68951;SDS011;56000;51.146;17.112;2023-05-19T12:07:27;8.80;;;4.60;;
68951;SDS011;56000;51.146;17.112;2023-05-19T12:10:01;9.80;;;5.60;;
68951;SDS011;56000;51.146;17.112;2023-05-19T12:12:36;9.40;;;4.80;;
68951;SDS011;56000;51.146;17.112;2023-05-19T12:15:11;7.00;;;4.60;;
68951;SDS011;56000;51.146;17.112;2023-05-19T12:17:45;9.40;;;4.90;;
68951;SDS011;56000;51.146;17.112;2023-05-19T12:20:21;8.40;;;4.50;;
68951;SDS011;56000;51.146;17.112;2023-05-19T12:22:55;5.50;;;4.10;;
68951;SDS011;56000;51.146;17.112;2023-05-19T12:25:29;8.30;;;4.20;;
68951;SDS011;56000;51.146;17.112;2023-05-19T12:28:03;9.40;;;4.40;;
68951;SDS011;56000;51.146;17.112;2023-05-19T12:30:37;6.90;;;4.40;;
68951;SDS011;56000;51.146;17.112;2023-05-19T12:33:10;9.50;;;4.80;;
68951;SDS011;56000;51.146;17.112;2023-05-19T12:35:45;8.10;;;4.70;;
68951;SDS011;56000;51.146;17.112;2023-05-19T12:38:19;6.90;;;4.20;;
68951;SDS011;56000;51.146;17.112;2023-05-19T12:40:53;7.20;;;5.00;;
68951;SDS011;56000;51.146;17.112;2023-05-19T12:43:30;7.50;;;4.20;;
68951;SDS011;56000;51.146;17.112;2023-05-19T12:46:11;6.20;;;4.50;;
68951;SDS011;56000;51.146;17.112;2023-05-19T12:48:46;9.10;;;5.30;;
68951;SDS011;56000;51.146;17.112;2023-05-19T12:51:20;8.10;;;4.60;;
68951;SDS011;56000;51.146;17.112;2023-05-19T12:53:53;10.10;;;6.00;;
68951;SDS011;56000;51.146;17.112;2023-05-19T12:56:26;9.00;;;6.00;;
68951;SDS011;56000;51.146;17.112;2023-05-19T12:59:02;9.70;;;6.10;;
68951;SDS011;56000;51.146;17.112;2023-05-19T13:01:36;10.80;;;7.10;;
68951;SDS011;56000;51.146;17.112;2023-05-19T13:04:09;10.50;;;7.00;;
68951;SDS011;56000;51.146;17.112;2023-05-19T13:06:43;12.10;;;7.20;;
68951;SDS011;56000;51.146;17.112;2023-05-19T13:09:18;9.50;;;6.60;;
68951;SDS011;56000;51.146;17.112;2023-05-19T13:11:51;10.30;;;6.60;;
68951;SDS011;56000;51.146;17.112;2023-05-19T13:14:25;13.70;;;6.40;;
68951;SDS011;56000;51.146;17.112;2023-05-19T13:16:58;10.90;;;6.20;;
68951;SDS011;56000;51.146;17.112;2023-05-19T13:19:32;12.40;;;7.10;;
68951;SDS011;56000;51.146;17.112;2023-05-19T13:22:05;10.40;;;7.20;;
68951;SDS011;56000;51.146;17.112;2023-05-19T13:24:38;11.50;;;7.80;;
68951;SDS011;56000;51.146;17.112;2023-05-19T13:27:11;13.40;;;8.30;;
68951;SDS011;56000;51.146;17.112;2023-05-19T13:29:44;11.50;;;7.60;;
68951;SDS011;56000;51.146;17.112;2023-05-19T13:32:17;14.40;;;8.70;;
68951;SDS011;56000;51.146;17.112;2023-05-19T13:34:50;11.40;;;7.90;;
68951;SDS011;56000;51.146;17.112;2023-05-19T13:37:24;13.10;;;8.70;;
68951;SDS011;56000;51.146;17.112;2023-05-19T13:39:57;16.90;;;8.20;;
68951;SDS011;56000;51.146;17.112;2023-05-19T13:42:32;13.90;;;9.40;;
68951;SDS011;56000;51.146;17.112;2023-05-19T13:45:07;10.60;;;8.10;;
68951;SDS011;56000;51.146;17.112;2023-05-19T13:47:41;8.80;;;5.60;;
68951;SDS011;56000;51.146;17.112;2023-05-19T13:50:14;9.00;;;5.60;;
68951;SDS011;56000;51.146;17.112;2023-05-19T13:52:47;12.10;;;7.20;;
68951;SDS011;56000;51.146;17.112;2023-05-19T13:55:20;15.30;;;9.80;;
68951;SDS011;56000;51.146;17.112;2023-05-19T13:57:55;11.80;;;7.40;;
68951;SDS011;56000;51.146;17.112;2023-05-19T14:00:28;11.50;;;7.80;;
68951;SDS011;56000;51.146;17.112;2023-05-19T14:03:02;11.20;;;7.40;;
68951;SDS011;56000;51.146;17.112;2023-05-19T14:05:35;11.80;;;8.20;;
68951;SDS011;56000;51.146;17.112;2023-05-19T14:08:08;12.60;;;8.90;;
68951;SDS011;56000;51.146;17.112;2023-05-19T14:10:41;14.60;;;8.40;;
68951;SDS011;56000;51.146;17.112;2023-05-19T14:13:16;13.90;;;8.30;;
68951;SDS011;56000;51.146;17.112;2023-05-19T14:16:01;11.20;;;7.00;;
68951;SDS011;56000;51.146;17.112;2023-05-19T14:18:35;13.20;;;8.90;;
68951;SDS011;56000;51.146;17.112;2023-05-19T14:21:08;11.80;;;8.00;;
68951;SDS011;56000;51.146;17.112;2023-05-19T14:23:41;17.30;;;8.70;;
68951;SDS011;56000;51.146;17.112;2023-05-19T14:26:15;13.60;;;8.60;;
68951;SDS011;56000;51.146;17.112;2023-05-19T14:28:48;15.20;;;9.00;;
68951;SDS011;56000;51.146;17.112;2023-05-19T14:31:21;13.50;;;9.50;;
68951;SDS011;56000;51.146;17.112;2023-05-19T14:33:55;12.70;;;8.80;;
68951;SDS011;56000;51.146;17.112;2023-05-19T14:36:28;14.50;;;10.20;;
68951;SDS011;56000;51.146;17.112;2023-05-19T14:39:02;17.90;;;9.40;;
68951;SDS011;56000;51.146;17.112;2023-05-19T14:41:35;17.40;;;10.00;;
68951;SDS011;56000;51.146;17.112;2023-05-19T14:44:08;16.80;;;11.50;;
68951;SDS011;56000;51.146;17.112;2023-05-19T14:46:41;13.90;;;10.00;;
68951;SDS011;56000;51.146;17.112;2023-05-19T14:49:14;14.90;;;10.50;;
68951;SDS011;56000;51.146;17.112;2023-05-19T14:51:47;15.00;;;9.20;;
68951;SDS011;56000;51.146;17.112;2023-05-19T14:54:20;15.00;;;9.00;;
68951;SDS011;56000;51.146;17.112;2023-05-19T14:56:54;15.50;;;9.70;;
68951;SDS011;56000;51.146;17.112;2023-05-19T14:59:27;15.10;;;9.20;;
68951;SDS011;56000;51.146;17.112;2023-05-19T15:02:00;14.00;;;9.00;;
68951;SDS011;56000;51.146;17.112;2023-05-19T15:04:34;15.20;;;9.60;;
68951;SDS011;56000;51.146;17.112;2023-05-19T15:07:07;17.50;;;10.00;;
68951;SDS011;56000;51.146;17.112;2023-05-19T15:09:40;15.50;;;9.60;;
68951;SDS011;56000;51.146;17.112;2023-05-19T15:12:13;14.70;;;10.30;;
68951;SDS011;56000;51.146;17.112;2023-05-19T15:14:47;17.90;;;11.90;;
68951;SDS011;56000;51.146;17.112;2023-05-19T15:17:20;16.90;;;10.70;;
68951;SDS011;56000;51.146;17.112;2023-05-19T15:19:53;16.10;;;11.10;;